Smethport, Pennsylvania
Current Conditions -  °F | °C
As of 4:53 AM on Monday 26 Jan 2015 (Local Time) from KBFD Reporting Station
Haze Haze  
Wind Chill:   Ceiling: 2700
Heat Index: 12°   Visibility: 6mi
Dew Point:   Wind: 9mph
Humidity: 77%   Direction: 80°E
Pressure: 29.75"   Gusts: NA
Location:  41.81°N, 78.44°W
Report Text: KBFD 260953Z AUTO 08008KT 6SM HZ OVC027 M11/M14 A2975 RMK AO2 SNE46 SLP104 P0000 T11111144
Loading
Personal Weather Stations






























Interactive Weather Map New forecast layout! Learn more

10-Day Weather Forecast

Advertisements
Track Severe Weather on mobile